Time;durP1;ratioP1;P1;durP2;ratioP2;P2;SDS_P1;SDS_P2;PMS_P1;PMS_P2;Temp;Humidity;BMP_temperature;BMP_pressure;BME280_temperature;BME280_humidity;BME280_pressure;Samples;Min_cycle;Max_cycle;Signal;HPM_P1;HPM_P2
2021/06/24 00:02:02;;;;;;;8.73;7.97;;;17.10;99.90;;;;;;5121313;28;20431;-45
2021/06/24 00:04:31;;;;;;;9.00;8.17;;;17.10;99.90;;;;;;5120054;28;20184;-44
2021/06/24 00:06:57;;;;;;;10.07;8.77;;;17.00;99.90;;;;;;5120014;28;20440;-42
2021/06/24 00:09:23;;;;;;;10.37;9.47;;;17.00;99.90;;;;;;5100321;28;20736;-45
2021/06/24 00:11:49;;;;;;;11.37;10.37;;;17.00;99.90;;;;;;5119837;28;20519;-44
2021/06/24 00:14:15;;;;;;;10.97;10.17;;;17.00;99.90;;;;;;5119737;28;20464;-43
2021/06/24 00:16:41;;;;;;;10.27;9.40;;;17.00;99.90;;;;;;5119633;28;20428;-43
2021/06/24 00:19:06;;;;;;;10.00;9.00;;;17.00;99.90;;;;;;5120480;28;20413;-43
2021/06/24 00:21:32;;;;;;;10.60;9.70;;;17.00;99.90;;;;;;5120868;28;20186;-43
2021/06/24 00:23:58;;;;;;;11.77;10.70;;;16.90;99.90;;;;;;5120968;28;20172;-43
2021/06/24 00:26:26;;;;;;;10.13;8.80;;;16.80;99.90;;;;;;5121046;28;20176;-44
2021/06/24 00:28:52;;;;;;;10.70;9.67;;;16.80;99.90;;;;;;5120753;28;20482;-42
2021/06/24 00:31:18;;;;;;;9.30;8.50;;;16.80;99.90;;;;;;5120876;28;20413;-42
2021/06/24 00:33:44;;;;;;;9.03;7.77;;;16.80;99.90;;;;;;5102589;28;20202;-46
2021/06/24 00:36:09;;;;;;;8.33;7.60;;;16.80;99.90;;;;;;5120256;28;20222;-43
2021/06/24 00:38:35;;;;;;;7.20;6.50;;;16.80;99.90;;;;;;5120828;28;20418;-42
2021/06/24 00:41:01;;;;;;;6.77;6.27;;;16.80;99.90;;;;;;5120457;28;20387;-42
2021/06/24 00:43:28;;;;;;;6.40;5.90;;;16.90;99.90;;;;;;5101541;28;20230;-43
2021/06/24 00:45:56;;;;;;;6.43;5.43;;;16.80;99.90;;;;;;5119878;28;20180;-43
2021/06/24 00:48:22;;;;;;;5.20;4.70;;;16.80;99.90;;;;;;5119754;28;20536;-44
2021/06/24 00:50:48;;;;;;;4.87;4.47;;;16.70;99.90;;;;;;5116995;28;20516;-42
2021/06/24 00:53:15;;;;;;;4.97;4.57;;;16.70;99.90;;;;;;5119679;28;20190;-42
2021/06/24 00:55:48;;;;;;;4.70;4.30;;;16.60;99.90;;;;;;5119780;28;20480;-43
2021/06/24 00:58:21;;;;;;;4.97;4.57;;;16.60;99.90;;;;;;5119912;28;20521;-44
2021/06/24 01:00:51;;;;;;;4.40;4.10;;;16.60;99.90;;;;;;5119152;28;20433;-43
2021/06/24 01:03:17;;;;;;;4.60;4.20;;;16.60;99.90;;;;;;5117207;28;20421;-43
2021/06/24 01:05:44;;;;;;;4.30;3.90;;;16.70;99.90;;;;;;5120758;28;20524;-42
2021/06/24 01:08:11;;;;;;;4.43;4.10;;;16.70;99.90;;;;;;5120867;28;20436;-43
2021/06/24 01:10:38;;;;;;;4.33;3.93;;;16.70;99.90;;;;;;5119551;28;20492;-43
2021/06/24 01:13:05;;;;;;;3.83;3.53;;;16.80;99.90;;;;;;5102168;28;20444;-44
2021/06/24 01:15:31;;;;;;;4.27;3.90;;;16.80;99.90;;;;;;5120377;28;20512;-43
2021/06/24 01:17:58;;;;;;;3.93;3.53;;;16.80;99.90;;;;;;5102802;28;20516;-43
2021/06/24 01:20:34;;;;;;;4.80;3.60;;;16.80;99.90;;;;;;5120785;28;20841;-42
2021/06/24 01:23:00;;;;;;;4.07;3.70;;;16.80;99.90;;;;;;5102481;28;20490;-42
2021/06/24 01:25:27;;;;;;;3.27;2.93;;;16.80;99.90;;;;;;5102477;28;20485;-42
2021/06/24 01:27:59;;;;;;;3.40;3.10;;;16.80;99.90;;;;;;5120524;28;20422;-44
2021/06/24 01:30:25;;;;;;;3.83;3.30;;;16.80;99.90;;;;;;5120735;28;20428;-46
2021/06/24 01:32:52;;;;;;;3.50;3.20;;;16.80;99.90;;;;;;5120581;28;20456;-45
2021/06/24 01:35:23;;;;;;;9.90;4.00;;;16.80;99.90;;;;;;5120719;28;20460;-43
2021/06/24 01:37:48;;;;;;;3.33;3.03;;;16.80;99.90;;;;;;5120367;28;20695;-45
2021/06/24 01:40:15;;;;;;;3.80;3.50;;;16.80;99.90;;;;;;5120554;28;20426;-42
2021/06/24 01:42:41;;;;;;;3.30;3.10;;;16.80;99.90;;;;;;5102107;28;20206;-42
2021/06/24 01:45:09;;;;;;;4.23;3.57;;;16.80;99.90;;;;;;5120122;28;20804;-43
2021/06/24 01:47:35;;;;;;;4.63;3.80;;;16.80;99.90;;;;;;5120334;28;20441;-46
2021/06/24 01:50:02;;;;;;;3.83;3.53;;;16.90;99.90;;;;;;5120144;28;20425;-42
2021/06/24 01:52:27;;;;;;;5.50;3.03;;;16.90;99.90;;;;;;5120053;28;20291;-43
2021/06/24 01:54:53;;;;;;;3.43;3.13;;;16.90;99.90;;;;;;5120039;28;20505;-42
2021/06/24 01:57:19;;;;;;;3.33;3.03;;;16.90;99.90;;;;;;5119749;28;20434;-43
2021/06/24 01:59:46;;;;;;;3.60;3.30;;;16.90;99.90;;;;;;5119827;28;20421;-42
2021/06/24 02:02:12;;;;;;;4.63;3.23;;;16.90;99.90;;;;;;5119751;28;20186;-44
2021/06/24 02:04:38;;;;;;;3.20;2.90;;;17.00;99.90;;;;;;5119957;28;20418;-42
2021/06/24 02:07:04;;;;;;;2.87;2.67;;;17.10;99.90;;;;;;5120055;28;20475;-42
2021/06/24 02:09:30;;;;;;;3.47;3.17;;;17.20;99.90;;;;;;5119872;28;20850;-43
2021/06/24 02:12:01;;;;;;;3.70;3.40;;;17.30;99.90;;;;;;5119505;28;20516;-41
2021/06/24 02:14:28;;;;;;;5.50;3.33;;;17.30;99.90;;;;;;5119833;28;20199;-45
2021/06/24 02:16:55;;;;;;;3.13;2.93;;;17.40;99.90;;;;;;5119638;28;20425;-43
2021/06/24 02:19:20;;;;;;;3.30;3.00;;;17.50;99.90;;;;;;5101496;28;20410;-43
2021/06/24 02:21:46;;;;;;;2.80;2.60;;;17.50;99.90;;;;;;5119271;28;20426;-41
2021/06/24 02:24:12;;;;;;;3.20;2.90;;;17.60;99.90;;;;;;5119634;28;20175;-44
2021/06/24 02:26:38;;;;;;;3.53;3.00;;;17.60;99.90;;;;;;5119500;28;20326;-44
2021/06/24 02:29:04;;;;;;;2.90;2.70;;;17.60;99.90;;;;;;5119259;28;20431;-43
2021/06/24 02:31:29;;;;;;;2.80;2.60;;;17.60;99.90;;;;;;5119462;28;20495;-44
2021/06/24 02:33:56;;;;;;;4.20;3.30;;;17.60;99.90;;;;;;5119736;28;20168;-43
2021/06/24 02:36:21;;;;;;;2.80;2.60;;;17.60;99.90;;;;;;5101444;28;20488;-42
2021/06/24 02:38:47;;;;;;;4.03;3.30;;;17.60;99.90;;;;;;5118836;28;20417;-44
2021/06/24 02:41:13;;;;;;;3.30;3.00;;;17.60;99.90;;;;;;5118496;28;20178;-45
2021/06/24 02:43:39;;;;;;;5.23;3.83;;;17.60;99.90;;;;;;5119009;28;20176;-44
2021/06/24 02:46:05;;;;;;;3.20;2.90;;;17.50;99.90;;;;;;5119455;28;20180;-45
2021/06/24 02:48:31;;;;;;;3.67;3.37;;;17.40;99.90;;;;;;5118602;28;20486;-42
2021/06/24 02:50:57;;;;;;;4.60;3.53;;;17.30;99.90;;;;;;5119536;28;21086;-44
2021/06/24 02:53:23;;;;;;;3.57;3.27;;;17.30;99.90;;;;;;5118830;28;20875;-43
2021/06/24 02:55:49;;;;;;;4.23;2.90;;;17.10;99.90;;;;;;5118453;28;20464;-42
2021/06/24 02:58:14;;;;;;;3.10;2.80;;;17.10;99.90;;;;;;5119076;28;20706;-44
2021/06/24 03:00:40;;;;;;;4.37;3.30;;;17.10;99.90;;;;;;5118849;28;20763;-44
2021/06/24 03:03:06;;;;;;;3.20;2.80;;;17.00;99.90;;;;;;5118643;28;20550;-42
2021/06/24 03:05:32;;;;;;;3.70;3.40;;;16.90;99.90;;;;;;5118300;28;20815;-46
2021/06/24 03:07:58;;;;;;;3.17;2.87;;;16.90;99.90;;;;;;5118372;28;20425;-43
2021/06/24 03:10:24;;;;;;;3.30;3.00;;;16.90;99.90;;;;;;5118370;28;20235;-43
2021/06/24 03:12:51;;;;;;;4.20;3.80;;;16.90;99.90;;;;;;5118325;28;20187;-44
2021/06/24 03:15:17;;;;;;;3.60;3.30;;;16.90;99.90;;;;;;5118339;28;20463;-42
2021/06/24 03:17:43;;;;;;;3.50;3.20;;;16.90;99.90;;;;;;5118558;28;20413;-42
2021/06/24 03:20:10;;;;;;;3.33;3.03;;;16.90;99.90;;;;;;5100948;28;20425;-45
2021/06/24 03:22:36;;;;;;;3.60;3.30;;;17.00;99.90;;;;;;5118485;28;20425;-45
2021/06/24 03:25:05;;;;;;;3.63;3.17;;;17.00;99.90;;;;;;5118067;28;20903;-42
2021/06/24 03:27:31;;;;;;;3.13;2.83;;;16.90;99.90;;;;;;5118163;28;20574;-42
2021/06/24 03:29:57;;;;;;;4.63;2.77;;;16.80;99.90;;;;;;5118520;28;20835;-44
2021/06/24 03:32:22;;;;;;;4.30;3.07;;;16.80;99.90;;;;;;5117669;28;20260;-42
2021/06/24 03:34:48;;;;;;;3.33;3.03;;;16.80;99.90;;;;;;5116384;28;20546;-44
2021/06/24 03:37:14;;;;;;;3.33;3.03;;;16.90;99.90;;;;;;5116973;28;20172;-44
2021/06/24 03:39:40;;;;;;;4.10;3.10;;;16.90;99.90;;;;;;5116558;28;20271;-42
2021/06/24 03:42:06;;;;;;;3.07;2.77;;;17.00;99.90;;;;;;5098908;28;20180;-42
2021/06/24 03:44:32;;;;;;;3.67;3.10;;;17.10;99.90;;;;;;5116315;28;20475;-47
2021/06/24 03:46:58;;;;;;;3.20;3.00;;;17.20;99.90;;;;;;5117106;28;20707;-43
2021/06/24 03:49:24;;;;;;;2.90;2.70;;;17.30;99.90;;;;;;5118008;28;20249;-45
2021/06/24 03:51:49;;;;;;;4.47;3.30;;;17.30;99.90;;;;;;5116383;28;20241;-44
2021/06/24 03:54:15;;;;;;;3.00;2.67;;;17.40;99.90;;;;;;5116783;28;20886;-44
2021/06/24 03:56:41;;;;;;;3.23;2.93;;;17.50;99.90;;;;;;5117433;28;20461;-43
2021/06/24 03:59:07;;;;;;;3.00;2.80;;;17.60;99.90;;;;;;5118049;28;20172;-43
2021/06/24 04:01:33;;;;;;;3.10;2.80;;;17.60;99.90;;;;;;5100059;28;20176;-42
2021/06/24 04:03:58;;;;;;;2.73;2.53;;;17.50;99.90;;;;;;5117908;28;20432;-44
2021/06/24 04:06:24;;;;;;;3.03;2.73;;;17.70;99.90;;;;;;5118494;28;20201;-44
2021/06/24 04:08:50;;;;;;;4.17;2.60;;;17.90;99.90;;;;;;5117102;28;20573;-42
2021/06/24 04:11:16;;;;;;;2.63;2.43;;;18.00;99.90;;;;;;5116918;28;20665;-42
2021/06/24 04:13:42;;;;;;;4.80;2.83;;;18.30;99.90;;;;;;5116868;28;20571;-43
2021/06/24 04:16:08;;;;;;;2.87;2.67;;;18.50;99.90;;;;;;5117145;28;20260;-42
2021/06/24 04:18:35;;;;;;;4.17;3.20;;;18.60;99.90;;;;;;5117065;28;20571;-42
2021/06/24 04:21:00;;;;;;;2.70;2.50;;;18.70;99.90;;;;;;5117576;28;20167;-42
2021/06/24 04:23:26;;;;;;;3.00;2.77;;;18.80;99.90;;;;;;5118039;28;20711;-42
2021/06/24 04:25:52;;;;;;;3.17;2.57;;;18.90;99.90;;;;;;5118327;28;20176;-45
2021/06/24 04:28:18;;;;;;;6.20;2.90;;;19.10;99.90;;;;;;5118110;28;20180;-43
2021/06/24 04:30:44;;;;;;;3.80;2.57;;;19.20;99.90;;;;;;5117276;28;20184;-43
2021/06/24 04:33:10;;;;;;;2.90;2.63;;;19.30;99.90;;;;;;5118506;28;20417;-43
2021/06/24 04:35:38;;;;;;;2.67;2.47;;;19.40;99.90;;;;;;5118093;28;20203;-41
2021/06/24 04:38:04;;;;;;;3.07;2.77;;;19.50;99.90;;;;;;5117312;28;20428;-41
2021/06/24 04:40:30;;;;;;;3.10;2.60;;;19.50;99.90;;;;;;5117080;28;20425;-42
2021/06/24 04:42:56;;;;;;;2.83;2.57;;;19.60;99.90;;;;;;5117354;28;20424;-43
2021/06/24 04:45:22;;;;;;;3.67;2.53;;;19.70;99.90;;;;;;5084375;28;20192;-42
2021/06/24 04:47:49;;;;;;;4.17;3.30;;;19.70;99.70;;;;;;5120619;28;20701;-41
2021/06/24 04:50:15;;;;;;;3.20;2.63;;;19.80;99.50;;;;;;5121024;28;20176;-42
2021/06/24 04:52:41;;;;;;;3.90;2.93;;;19.80;99.40;;;;;;5120491;28;20472;-41
2021/06/24 04:55:07;;;;;;;4.63;3.10;;;19.90;99.60;;;;;;5119549;28;20453;-41
2021/06/24 04:57:33;;;;;;;2.90;2.70;;;20.00;99.10;;;;;;5118203;28;20201;-43
2021/06/24 04:59:59;;;;;;;3.00;2.67;;;20.00;99.10;;;;;;5101108;28;20433;-41
2021/06/24 05:02:25;;;;;;;2.97;2.30;;;20.10;98.90;;;;;;5120970;28;20418;-42
2021/06/24 05:04:51;;;;;;;2.83;2.43;;;20.10;98.90;;;;;;5118349;28;20262;-43
2021/06/24 05:07:17;;;;;;;3.20;3.00;;;20.20;98.70;;;;;;5118934;28;20164;-43
2021/06/24 05:09:44;;;;;;;3.57;2.60;;;20.20;98.40;;;;;;5118455;28;20728;-43
2021/06/24 05:12:11;;;;;;;3.30;2.77;;;20.30;98.50;;;;;;5117974;28;20817;-42
2021/06/24 05:14:38;;;;;;;3.17;2.37;;;20.40;98.20;;;;;;5117938;28;20518;-42
2021/06/24 05:17:05;;;;;;;3.00;2.80;;;20.40;98.40;;;;;;5117308;28;20421;-42
2021/06/24 05:19:34;;;;;;;4.73;2.67;;;20.40;98.00;;;;;;5118486;28;20409;-42
2021/06/24 05:22:00;;;;;;;2.90;2.70;;;20.40;98.10;;;;;;5098474;28;20434;-45
2021/06/24 05:24:26;;;;;;;2.63;2.30;;;20.50;98.00;;;;;;5118085;28;20948;-40
2021/06/24 05:26:52;;;;;;;2.63;2.43;;;20.50;98.10;;;;;;5117902;28;20429;-42
2021/06/24 05:29:18;;;;;;;3.27;2.97;;;20.60;98.10;;;;;;5116192;28;20184;-42
2021/06/24 05:31:44;;;;;;;2.77;2.57;;;20.70;98.10;;;;;;5097886;28;20448;-42
2021/06/24 05:34:12;;;;;;;3.30;3.00;;;20.70;98.00;;;;;;5116309;28;20523;-42
2021/06/24 05:36:38;;;;;;;3.23;3.03;;;20.80;98.00;;;;;;5100262;28;20478;-41
2021/06/24 05:39:04;;;;;;;3.90;3.60;;;20.90;97.80;;;;;;5083476;28;20808;-45
2021/06/24 05:41:30;;;;;;;3.50;2.97;;;20.90;97.30;;;;;;5118196;28;20454;-41
2021/06/24 05:43:57;;;;;;;3.40;3.10;;;20.90;97.90;;;;;;5117428;28;20406;-41
2021/06/24 05:46:23;;;;;;;3.83;3.43;;;20.90;97.90;;;;;;5118140;28;20425;-42
2021/06/24 05:48:51;;;;;;;4.10;3.70;;;21.00;97.80;;;;;;5117280;28;20763;-41
2021/06/24 05:51:18;;;;;;;3.83;3.20;;;21.20;97.70;;;;;;5117422;28;20475;-42
2021/06/24 05:53:44;;;;;;;4.90;4.00;;;21.30;97.40;;;;;;5117715;28;20425;-42
2021/06/24 05:56:10;;;;;;;4.60;3.13;;;21.40;97.50;;;;;;5097156;28;20470;-42
2021/06/24 05:58:35;;;;;;;4.37;3.80;;;21.60;97.30;;;;;;5116809;28;20430;-41
2021/06/24 06:01:01;;;;;;;4.93;4.53;;;21.80;97.10;;;;;;5115170;28;20417;-41
2021/06/24 06:03:27;;;;;;;5.63;3.43;;;22.10;96.50;;;;;;5117250;28;20180;-42
2021/06/24 06:05:54;;;;;;;4.03;3.63;;;22.40;96.20;;;;;;5117767;28;20421;-42
2021/06/24 06:08:20;;;;;;;7.70;3.90;;;22.60;95.70;;;;;;5118018;28;20439;-43
2021/06/24 06:10:46;;;;;;;4.20;3.90;;;22.70;95.40;;;;;;5119090;28;20763;-42
2021/06/24 06:13:12;;;;;;;3.87;3.57;;;22.80;95.10;;;;;;5117785;28;20432;-43
2021/06/24 06:15:43;;;;;;;4.43;4.03;;;22.80;95.00;;;;;;5098413;28;20200;-42
2021/06/24 06:18:13;;;;;;;4.20;3.90;;;22.70;94.90;;;;;;5115931;28;20429;-42
2021/06/24 06:20:39;;;;;;;4.10;3.60;;;22.40;94.80;;;;;;5117054;28;20420;-43
2021/06/24 06:23:05;;;;;;;3.77;3.47;;;22.20;95.30;;;;;;5118484;28;20443;-43
2021/06/24 06:25:31;;;;;;;3.83;3.53;;;22.10;95.50;;;;;;5118478;28;20414;-43
2021/06/24 06:27:57;;;;;;;3.43;3.13;;;22.10;95.80;;;;;;5118883;28;20430;-43
2021/06/24 06:30:25;;;;;;;4.00;3.70;;;22.10;95.80;;;;;;5119030;28;20172;-42
2021/06/24 06:32:51;;;;;;;4.60;4.20;;;22.20;95.60;;;;;;5118597;28;20425;-43
2021/06/24 06:35:17;;;;;;;5.40;3.53;;;22.20;95.50;;;;;;5118704;28;20460;-42
2021/06/24 06:37:43;;;;;;;6.97;3.73;;;22.20;95.90;;;;;;5080891;28;20468;-42
2021/06/24 06:40:09;;;;;;;4.03;3.63;;;22.30;95.40;;;;;;5117677;28;20413;-43
2021/06/24 06:42:36;;;;;;;4.80;4.20;;;22.40;95.50;;;;;;5118548;28;20577;-41
2021/06/24 06:45:02;;;;;;;4.27;3.87;;;22.40;95.20;;;;;;5119163;28;20418;-43
2021/06/24 06:47:27;;;;;;;6.20;3.60;;;22.50;95.40;;;;;;5117646;28;20433;-43
2021/06/24 06:49:53;;;;;;;3.87;3.50;;;22.60;95.20;;;;;;5119080;28;20675;-43
2021/06/24 06:52:19;;;;;;;4.10;3.70;;;22.60;95.10;;;;;;5099044;28;20188;-42
2021/06/24 06:54:45;;;;;;;4.03;3.73;;;22.60;95.00;;;;;;5117656;28;20206;-43
2021/06/24 06:57:11;;;;;;;4.10;3.80;;;22.90;94.70;;;;;;5117498;28;20537;-42
2021/06/24 06:59:36;;;;;;;5.73;3.53;;;23.20;94.60;;;;;;5116989;28;20195;-42
2021/06/24 07:02:03;;;;;;;4.50;4.10;;;23.60;94.10;;;;;;5118065;28;20180;-43
2021/06/24 07:04:29;;;;;;;4.60;4.20;;;24.00;93.70;;;;;;5118178;28;20186;-42
2021/06/24 07:06:54;;;;;;;4.33;4.00;;;24.30;92.80;;;;;;5118436;28;20425;-42
2021/06/24 07:09:20;;;;;;;5.10;4.30;;;24.50;92.60;;;;;;5116629;28;20207;-42
2021/06/24 07:11:46;;;;;;;5.13;3.70;;;24.90;92.20;;;;;;5099347;28;20251;-44
2021/06/24 07:14:12;;;;;;;4.80;4.10;;;25.30;92.00;;;;;;5100038;28;20178;-44
2021/06/24 07:16:37;;;;;;;5.40;4.90;;;25.50;92.20;;;;;;5116989;28;20176;-45
2021/06/24 07:19:03;;;;;;;4.70;4.30;;;25.80;91.30;;;;;;5117448;28;20164;-43
2021/06/24 07:21:29;;;;;;;5.90;4.57;;;25.50;91.00;;;;;;5118093;28;20226;-43
2021/06/24 07:23:55;;;;;;;4.23;3.93;;;25.50;91.10;;;;;;5117342;28;20406;-44
2021/06/24 07:26:21;;;;;;;3.70;3.40;;;25.30;90.70;;;;;;5115428;28;20202;-43
2021/06/24 07:28:47;;;;;;;3.70;3.40;;;24.90;91.40;;;;;;5113244;28;20267;-44
2021/06/24 07:31:12;;;;;;;3.57;3.27;;;25.00;91.20;;;;;;5116443;28;20175;-44
2021/06/24 07:33:38;;;;;;;4.40;4.00;;;25.10;91.10;;;;;;5115186;28;20422;-43
2021/06/24 07:36:04;;;;;;;4.47;4.17;;;25.40;90.90;;;;;;5111125;28;20630;-43
2021/06/24 07:38:31;;;;;;;4.43;4.03;;;25.60;91.20;;;;;;5112750;28;20263;-44
2021/06/24 07:40:57;;;;;;;4.20;3.90;;;25.90;90.00;;;;;;5112618;28;20414;-43
2021/06/24 07:43:22;;;;;;;3.73;3.43;;;26.00;89.30;;;;;;5112018;28;20424;-46
2021/06/24 07:45:49;;;;;;;3.40;3.20;;;26.20;88.40;;;;;;5113966;28;20414;-45
2021/06/24 07:48:14;;;;;;;3.57;3.30;;;26.50;88.20;;;;;;5114259;28;20460;-43
2021/06/24 07:50:40;;;;;;;3.43;3.13;;;26.60;86.50;;;;;;5113810;28;20448;-37
2021/06/24 07:53:07;;;;;;;4.13;3.40;;;26.80;86.20;;;;;;5111770;28;20426;-37
2021/06/24 07:55:34;;;;;;;3.60;3.30;;;25.90;85.10;;;;;;5113640;28;20465;-37
2021/06/24 07:58:01;;;;;;;2.93;2.73;;;25.80;85.00;;;;;;5114305;28;20705;-36
2021/06/24 08:00:31;;;;;;;3.53;3.20;;;25.50;86.80;;;;;;5114824;28;20813;-37
2021/06/24 08:02:58;;;;;;;3.27;3.07;;;25.30;86.90;;;;;;5114766;28;20432;-38
2021/06/24 08:05:29;;;;;;;3.40;3.20;;;25.10;87.80;;;;;;5114223;28;20734;-38
2021/06/24 08:07:56;;;;;;;4.03;3.70;;;25.00;88.10;;;;;;5095003;28;20446;-36
2021/06/24 08:10:23;;;;;;;4.90;4.43;;;24.90;87.60;;;;;;5112780;28;20769;-37
2021/06/24 08:12:50;;;;;;;4.10;3.70;;;23.60;90.50;;;;;;5095581;28;20506;-37
2021/06/24 08:15:18;;;;;;;4.13;3.83;;;23.80;91.10;;;;;;5114038;28;20512;-37
2021/06/24 08:17:47;;;;;;;5.70;3.33;;;24.30;90.50;;;;;;5113228;28;20493;-37
2021/06/24 08:20:15;;;;;;;3.33;3.03;;;25.00;89.10;;;;;;5115828;28;20712;-38
2021/06/24 08:22:41;;;;;;;3.70;3.40;;;25.80;88.60;;;;;;5117951;28;20433;-38
2021/06/24 08:25:11;;;;;;;4.80;3.07;;;26.70;88.00;;;;;;5117724;28;20660;-37
2021/06/24 08:27:38;;;;;;;3.37;3.07;;;27.10;82.30;;;;;;5117992;28;20433;-37
2021/06/24 08:30:05;;;;;;;3.23;2.97;;;27.70;81.90;;;;;;5118292;28;20417;-37
2021/06/24 08:32:31;;;;;;;3.00;2.80;;;28.00;80.40;;;;;;5118478;28;20437;-37
2021/06/24 08:34:57;;;;;;;2.90;2.60;;;28.00;77.00;;;;;;5117344;28;20453;-37
2021/06/24 08:37:27;;;;;;;3.63;3.33;;;27.50;75.70;;;;;;5117310;28;20435;-38
2021/06/24 08:39:53;;;;;;;3.20;2.90;;;26.90;77.10;;;;;;5116589;28;20275;-37
2021/06/24 08:42:22;;;;;;;3.40;3.07;;;26.10;78.30;;;;;;5120628;28;20445;-37
2021/06/24 08:44:50;;;;;;;3.70;3.40;;;25.70;80.80;;;;;;5098725;28;20818;-37
2021/06/24 08:47:16;;;;;;;4.90;3.23;;;25.40;82.10;;;;;;5098931;28;20460;-37
2021/06/24 08:49:43;;;;;;;3.33;3.00;;;25.50;82.50;;;;;;5116931;28;20421;-38
2021/06/24 08:52:11;;;;;;;3.40;3.10;;;25.70;82.20;;;;;;5099107;28;20974;-36
2021/06/24 08:54:37;;;;;;;3.30;3.00;;;26.00;80.60;;;;;;5117602;28;20467;-37
2021/06/24 08:57:03;;;;;;;3.00;2.80;;;25.90;79.80;;;;;;5117584;28;20421;-37
2021/06/24 08:59:29;;;;;;;3.37;3.07;;;25.80;79.10;;;;;;5117066;28;20417;-36
2021/06/24 09:01:59;;;;;;;3.30;3.00;;;25.60;79.70;;;;;;5117893;28;20421;-37
2021/06/24 09:04:28;;;;;;;3.40;3.20;;;25.90;80.20;;;;;;5119522;28;20464;-37
2021/06/24 09:07:08;;;;;;;3.23;2.90;;;25.90;79.40;;;;;;5117571;28;20567;-37
2021/06/24 09:09:36;;;;;;;3.43;3.13;;;25.80;80.40;;;;;;5114125;28;20749;-37
2021/06/24 09:12:09;;;;;;;3.67;3.37;;;25.60;80.10;;;;;;5112448;28;20751;-37
2021/06/24 09:14:41;;;;;;;4.33;4.03;;;24.90;82.00;;;;;;5114690;28;20895;-37
2021/06/24 09:17:07;;;;;;;3.07;2.87;;;24.50;85.00;;;;;;5115169;28;20433;-37
2021/06/24 09:19:34;;;;;;;3.63;3.33;;;24.60;86.40;;;;;;5096360;28;20456;-37
2021/06/24 09:22:04;;;;;;;3.70;3.40;;;24.80;84.60;;;;;;5115410;28;20823;-36
2021/06/24 09:24:33;;;;;;;4.00;3.70;;;25.00;86.00;;;;;;5118803;28;20504;-38
2021/06/24 09:27:20;;;;;;;4.20;3.90;;;25.20;85.60;;;;;;5094247;28;20514;-37
2021/06/24 09:30:01;;;;;;;3.80;3.50;;;25.10;84.90;;;;;;5077374;28;20419;-37
2021/06/24 09:32:31;;;;;;;3.37;3.10;;;25.10;85.10;;;;;;5077619;28;20426;-37
2021/06/24 09:34:58;;;;;;;4.23;3.30;;;24.90;85.00;;;;;;5078507;28;20505;-37
2021/06/24 09:37:46;;;;;;;3.17;2.87;;;24.70;85.50;;;;;;5078532;28;20461;-36
2021/06/24 09:40:13;;;;;;;3.70;3.30;;;24.60;85.30;;;;;;5047817;28;20423;-37
2021/06/24 09:42:39;;;;;;;3.43;3.13;;;24.50;84.10;;;;;;5076686;28;20815;-36
2021/06/24 09:45:13;;;;;;;3.60;3.30;;;24.30;85.80;;;;;;5077239;28;20415;-37
2021/06/24 09:47:39;;;;;;;3.37;3.17;;;24.10;88.80;;;;;;5076895;28;20715;-36
2021/06/24 09:50:08;;;;;;;3.20;3.00;;;24.20;86.20;;;;;;5076393;28;20416;-37
2021/06/24 09:52:36;;;;;;;3.23;3.03;;;24.10;86.80;;;;;;5076907;28;20177;-37
2021/06/24 09:55:13;;;;;;;3.83;3.53;;;24.10;86.80;;;;;;5076315;28;20895;-37
2021/06/24 09:57:40;;;;;;;3.17;2.90;;;24.00;85.30;;;;;;5076230;28;20431;-38
2021/06/24 10:00:33;;;;;;;2.97;2.77;;;23.60;87.70;;;;;;5077337;28;20415;-37
2021/06/24 10:03:11;;;;;;;3.43;3.20;;;23.40;88.10;;;;;;5076151;28;20427;-36
2021/06/24 10:05:39;;;;;;;3.07;2.87;;;22.60;90.10;;;;;;5076352;28;20408;-36
2021/06/24 10:08:07;;;;;;;3.30;3.00;;;22.70;90.50;;;;;;5075175;28;20431;-37
2021/06/24 10:10:34;;;;;;;3.33;3.13;;;22.60;89.80;;;;;;5078905;28;20478;-37
2021/06/24 10:13:00;;;;;;;4.00;3.10;;;22.10;91.20;;;;;;5096511;28;20443;-37
2021/06/24 10:15:27;;;;;;;2.90;2.70;;;22.20;91.20;;;;;;5095984;28;20859;-38
2021/06/24 10:17:55;;;;;;;3.00;2.80;;;22.20;91.30;;;;;;5095525;28;20191;-37
2021/06/24 10:20:23;;;;;;;2.67;2.47;;;22.50;90.80;;;;;;5097057;28;20410;-37
2021/06/24 10:23:18;;;;;;;2.70;2.50;;;22.60;90.60;;;;;;5096493;28;20427;-38
2021/06/24 10:25:48;;;;;;;3.10;2.80;;;22.80;90.30;;;;;;5088484;28;20422;-38
2021/06/24 10:28:17;;;;;;;2.33;2.13;;;23.00;90.10;;;;;;5099297;28;20434;-40
2021/06/24 10:30:43;;;;;;;2.37;2.17;;;22.70;88.80;;;;;;5097658;28;20421;-38
2021/06/24 10:33:12;;;;;;;2.70;2.50;;;22.40;89.30;;;;;;5095011;28;20484;-36
2021/06/24 10:35:40;;;;;;;2.40;2.20;;;22.70;89.50;;;;;;5093616;28;20492;-36
2021/06/24 10:38:07;;;;;;;2.60;2.40;;;22.70;89.00;;;;;;5093475;28;20434;-35
2021/06/24 10:40:41;;;;;;;2.67;2.47;;;22.90;88.50;;;;;;5094709;28;20415;-34
2021/06/24 10:43:11;;;;;;;2.87;2.00;;;23.20;87.10;;;;;;5094652;28;20507;-35
2021/06/24 10:45:39;;;;;;;2.27;2.10;;;23.10;86.10;;;;;;5105081;28;20426;-37
2021/06/24 10:48:31;;;;;;;2.00;1.90;;;23.50;86.50;;;;;;5114642;28;20425;-36
2021/06/24 10:51:07;;;;;;;2.60;2.40;;;23.70;83.90;;;;;;5118222;28;20424;-36
2021/06/24 10:53:35;;;;;;;3.10;2.30;;;23.30;85.80;;;;;;5117062;28;20822;-37
2021/06/24 10:56:02;;;;;;;2.60;2.40;;;23.40;86.70;;;;;;5115013;28;20465;-37
2021/06/24 10:58:31;;;;;;;6.73;2.77;;;23.60;87.50;;;;;;5114615;28;20414;-36
2021/06/24 11:01:01;;;;;;;2.60;2.40;;;24.00;87.50;;;;;;5116474;28;20414;-37
2021/06/24 11:03:40;;;;;;;3.13;2.37;;;24.00;85.70;;;;;;5117496;28;20413;-36
2021/06/24 11:06:14;;;;;;;2.60;2.40;;;24.40;84.30;;;;;;5115353;28;20409;-38
2021/06/24 11:08:41;;;;;;;3.60;3.30;;;24.50;86.10;;;;;;5114459;28;20553;-37
2021/06/24 11:11:12;;;;;;;2.53;2.33;;;24.50;84.00;;;;;;5113653;28;20476;-36
2021/06/24 11:13:47;;;;;;;2.80;2.60;;;24.50;83.70;;;;;;5113870;28;20607;-37
2021/06/24 11:16:16;;;;;;;3.63;2.70;;;24.80;83.80;;;;;;5114050;28;20789;-37
2021/06/24 11:18:59;;;;;;;2.13;2.03;;;25.00;84.10;;;;;;5114224;28;20517;-36
2021/06/24 11:21:31;;;;;;;1.90;1.80;;;24.70;79.80;;;;;;5113453;28;20876;-37
2021/06/24 11:24:01;;;;;;;1.97;1.80;;;24.50;81.20;;;;;;5113068;28;20433;-36
2021/06/24 11:26:29;;;;;;;1.87;1.67;;;24.10;81.30;;;;;;5112162;28;20430;-36
2021/06/24 11:29:01;;;;;;;1.97;1.60;;;24.00;81.80;;;;;;5114120;28;20706;-37
2021/06/24 11:31:55;;;;;;;3.00;2.10;;;23.80;82.00;;;;;;5116694;28;20443;-37
2021/06/24 11:37:10;;;;;;;2.60;1.97;;;23.10;85.80;;;;;;5113430;28;20907;-36
2021/06/24 11:39:38;;;;;;;1.70;1.40;;;22.90;86.10;;;;;;5115096;28;20823;-36
2021/06/24 11:42:09;;;;;;;2.37;1.80;;;22.20;85.70;;;;;;5116750;28;20750;-36
2021/06/24 11:44:38;;;;;;;2.83;1.80;;;22.00;87.90;;;;;;5099803;28;20425;-36
2021/06/24 11:47:12;;;;;;;1.80;1.60;;;21.90;87.70;;;;;;5116944;28;20428;-36
2021/06/24 12:04:06;;;;;;;2.03;1.93;;;21.90;90.30;;;;;;5119550;28;20821;-37
2021/06/24 12:06:42;;;;;;;2.10;1.67;;;22.70;90.10;;;;;;5118499;28;20512;-37
2021/06/24 12:09:08;;;;;;;1.70;1.60;;;23.70;86.20;;;;;;5116766;28;20723;-36
2021/06/24 12:11:43;;;;;;;1.47;1.37;;;24.00;83.80;;;;;;5118870;28;20473;-37
2021/06/24 12:14:23;;;;;;;1.50;1.27;;;23.90;81.70;;;;;;5120785;28;20195;-35
2021/06/24 12:17:09;;;;;;;1.97;1.40;;;23.80;82.60;;;;;;5118328;28;20427;-36
2021/06/24 12:20:00;;;;;;;1.43;1.10;;;24.20;79.50;;;;;;5118720;28;20408;-36
2021/06/24 12:22:38;;;;;;;1.20;1.03;;;24.60;76.50;;;;;;5117033;28;20413;-37
2021/06/24 12:25:28;;;;;;;1.30;1.10;;;24.30;74.50;;;;;;5115841;28;20404;-37
2021/06/24 12:28:05;;;;;;;1.20;1.10;;;24.10;74.80;;;;;;5038237;28;20439;-36
2021/06/24 12:30:40;;;;;;;1.40;1.30;;;24.30;76.40;;;;;;5055442;28;20459;-37
2021/06/24 12:33:11;;;;;;;1.73;1.23;;;24.70;75.70;;;;;;5039026;28;20518;-38
2021/06/24 12:35:40;;;;;;;1.20;1.10;;;25.30;72.10;;;;;;5057079;28;20684;-37
2021/06/24 12:38:11;;;;;;;1.30;1.13;;;25.50;71.10;;;;;;5056620;28;20868;-44
2021/06/24 12:40:41;;;;;;;1.30;1.10;;;25.30;71.10;;;;;;5056326;28;20420;-38
2021/06/24 12:43:09;;;;;;;1.30;1.20;;;25.30;72.20;;;;;;5038448;28;20450;-39
2021/06/24 12:45:39;;;;;;;1.70;1.03;;;26.20;70.40;;;;;;5055956;28;20539;-37
2021/06/24 12:48:05;;;;;;;1.87;1.20;;;26.80;68.10;;;;;;5056603;28;20471;-38
2021/06/24 12:50:36;;;;;;;1.70;1.10;;;27.30;65.70;;;;;;5058782;28;20463;-38
2021/06/24 12:53:10;;;;;;;1.30;1.20;;;27.40;66.90;;;;;;5054404;28;20497;-37
2021/06/24 12:55:51;;;;;;;1.30;1.20;;;27.80;65.70;;;;;;5056578;28;20698;-37
2021/06/24 12:58:26;;;;;;;2.83;1.90;;;27.00;65.50;;;;;;5072556;28;20425;-37
2021/06/24 13:01:09;;;;;;;1.20;1.10;;;27.40;62.80;;;;;;5115552;28;20415;-37
2021/06/24 13:03:42;;;;;;;1.70;1.40;;;28.00;65.90;;;;;;5117689;28;20512;-38
2021/06/24 13:06:17;;;;;;;2.30;1.87;;;27.50;63.00;;;;;;5097866;28;20431;-39
2021/06/24 13:08:50;;;;;;;2.07;1.87;;;27.90;64.30;;;;;;5114601;28;20527;-37